Time;durP1;ratioP1;P1;durP2;ratioP2;P2;SDS_P1;SDS_P2;PMS_P1;PMS_P2;Temp;Humidity;BMP_temperature;BMP_pressure;BME280_temperature;BME280_humidity;BME280_pressure;Samples;Min_cycle;Max_cycle;Signal;HPM_P1;HPM_P2
2023/06/28 00:00:28;;;;;;;9.25;4.68;;;16.20;80.20;;;;;;4957987;28;20038;-79
2023/06/28 00:02:55;;;;;;;10.15;5.03;;;16.30;80.30;;;;;;4973635;28;20054;-79
2023/06/28 00:05:21;;;;;;;7.53;4.00;;;16.20;80.30;;;;;;4957833;28;20042;-79
2023/06/28 00:07:47;;;;;;;10.25;4.53;;;16.30;80.50;;;;;;4973600;28;20146;-78
2023/06/28 00:10:13;;;;;;;15.07;4.82;;;16.20;80.30;;;;;;4955955;28;20039;-78
2023/06/28 00:12:38;;;;;;;8.50;4.15;;;16.20;80.20;;;;;;4957318;28;20049;-78
2023/06/28 00:15:07;;;;;;;14.35;3.97;;;16.20;80.20;;;;;;4941797;28;20050;-78
2023/06/28 00:17:33;;;;;;;7.95;4.25;;;16.20;80.30;;;;;;4957366;28;20035;-78
2023/06/28 00:20:00;;;;;;;5.30;3.80;;;16.20;80.20;;;;;;4973564;28;20049;-78
2023/06/28 00:22:29;;;;;;;6.95;3.75;;;16.20;80.10;;;;;;4973337;28;20050;-78
2023/06/28 00:24:59;;;;;;;6.82;3.80;;;16.20;80.10;;;;;;4942110;28;20089;-78
2023/06/28 00:27:27;;;;;;;10.15;3.90;;;16.20;80.20;;;;;;4972534;28;20126;-79
2023/06/28 00:29:53;;;;;;;11.45;3.92;;;16.10;80.30;;;;;;4941940;28;20074;-78
2023/06/28 00:32:19;;;;;;;10.88;3.85;;;16.10;80.50;;;;;;4957350;28;20097;-78
2023/06/28 00:34:45;;;;;;;7.28;4.20;;;16.20;80.60;;;;;;4973517;28;20484;-78
2023/06/28 00:37:10;;;;;;;6.05;3.55;;;16.10;80.60;;;;;;4941278;28;20129;-78
2023/06/28 00:39:36;;;;;;;9.52;3.72;;;16.10;80.60;;;;;;4957176;28;20039;-78
2023/06/28 00:42:02;;;;;;;8.32;3.50;;;16.10;80.60;;;;;;4961616;28;20125;-78
2023/06/28 00:44:28;;;;;;;10.63;4.72;;;16.10;80.70;;;;;;4979687;28;20058;-78
2023/06/28 00:46:58;;;;;;;9.57;4.38;;;16.10;80.70;;;;;;4978670;28;20051;-79
2023/06/28 00:49:28;;;;;;;8.85;3.92;;;16.10;81.00;;;;;;4980820;28;20053;-78
2023/06/28 00:51:55;;;;;;;16.65;4.90;;;16.10;80.90;;;;;;4999273;28;20049;-78
2023/06/28 00:54:22;;;;;;;10.23;5.20;;;16.10;81.00;;;;;;4999471;28;20043;-79
2023/06/28 00:56:51;;;;;;;11.80;4.30;;;16.10;81.00;;;;;;4983143;28;20073;-79
2023/06/28 00:59:17;;;;;;;11.93;4.57;;;16.00;81.20;;;;;;4982724;28;20043;-78
2023/06/28 01:01:43;;;;;;;11.07;5.63;;;16.00;81.70;;;;;;4976286;28;20038;-78
2023/06/28 01:04:09;;;;;;;10.90;5.03;;;16.00;81.80;;;;;;4979321;28;20073;-78
2023/06/28 01:06:38;;;;;;;9.55;4.88;;;15.90;82.40;;;;;;4963416;28;20043;-78
2023/06/28 01:09:07;;;;;;;7.90;5.07;;;15.90;82.10;;;;;;4979499;28;20039;-78
2023/06/28 01:11:37;;;;;;;8.10;5.05;;;15.90;82.00;;;;;;4947760;28;20479;-78
2023/06/28 01:14:05;;;;;;;11.68;5.40;;;15.90;82.10;;;;;;4979197;28;20043;-78
2023/06/28 01:16:33;;;;;;;6.85;4.63;;;15.90;82.50;;;;;;4979450;28;20238;-79
2023/06/28 01:18:59;;;;;;;11.02;5.38;;;15.90;82.30;;;;;;4962643;28;20035;-78
2023/06/28 01:21:29;;;;;;;12.35;4.82;;;15.90;82.50;;;;;;4979358;28;20377;-78
2023/06/28 01:23:55;;;;;;;10.35;4.88;;;15.90;82.60;;;;;;4963517;28;20183;-78
2023/06/28 01:26:22;;;;;;;8.50;4.72;;;15.90;83.00;;;;;;4979274;28;20042;-79
2023/06/28 01:28:49;;;;;;;9.30;5.18;;;15.90;82.80;;;;;;4963089;28;20053;-78
2023/06/28 01:31:15;;;;;;;9.48;4.93;;;15.90;82.80;;;;;;4963253;28;20114;-78
2023/06/28 01:33:42;;;;;;;14.77;5.53;;;15.90;82.90;;;;;;4963029;28;20447;-78
2023/06/28 01:36:09;;;;;;;8.70;4.63;;;15.90;82.90;;;;;;4943509;29;20333;-78
2023/06/28 01:38:36;;;;;;;8.20;4.20;;;15.90;83.20;;;;;;4959582;28;20126;-78
2023/06/28 01:41:03;;;;;;;11.38;4.50;;;15.90;83.40;;;;;;4959784;28;20039;-78
2023/06/28 01:43:29;;;;;;;7.43;3.58;;;15.90;83.20;;;;;;4943739;29;20055;-78
2023/06/28 01:45:54;;;;;;;7.03;4.65;;;15.80;83.60;;;;;;4959955;28;20407;-78
2023/06/28 01:48:20;;;;;;;9.32;3.90;;;15.80;83.70;;;;;;4927870;28;20047;-78
2023/06/28 01:50:46;;;;;;;6.53;3.63;;;15.70;84.20;;;;;;4944018;29;20047;-79
2023/06/28 01:53:12;;;;;;;8.18;3.97;;;15.70;84.30;;;;;;4964560;28;20042;-79
2023/06/28 01:55:38;;;;;;;7.80;3.88;;;15.70;84.40;;;;;;4944038;28;20043;-78
2023/06/28 01:58:03;;;;;;;6.97;3.47;;;15.70;84.30;;;;;;4976070;28;20073;-78
2023/06/28 02:00:29;;;;;;;6.60;3.67;;;15.70;84.70;;;;;;4959808;28;20050;-78
2023/06/28 02:02:55;;;;;;;7.53;4.03;;;15.60;85.40;;;;;;4959601;28;20054;-78
2023/06/28 02:05:21;;;;;;;4.97;2.92;;;15.60;84.50;;;;;;4943811;28;20130;-78
2023/06/28 02:07:47;;;;;;;6.53;3.22;;;15.60;84.80;;;;;;4974971;28;20057;-78
2023/06/28 02:10:13;;;;;;;6.60;3.40;;;15.50;85.20;;;;;;4975844;28;20043;-77
2023/06/28 02:12:38;;;;;;;6.80;3.17;;;15.50;85.10;;;;;;4959796;28;20097;-77
2023/06/28 02:15:06;;;;;;;5.18;3.45;;;15.50;85.40;;;;;;4975744;28;20443;-77
2023/06/28 02:17:32;;;;;;;4.78;3.30;;;15.40;85.60;;;;;;4975757;28;20039;-77
2023/06/28 02:19:58;;;;;;;7.88;3.20;;;15.50;85.30;;;;;;4975104;28;20045;-77
2023/06/28 02:22:26;;;;;;;6.65;3.50;;;15.40;86.90;;;;;;4975412;28;20049;-77
2023/06/28 02:24:52;;;;;;;5.50;3.33;;;15.40;86.00;;;;;;4958054;28;20042;-77
2023/06/28 02:27:18;;;;;;;5.78;3.15;;;15.40;87.00;;;;;;4959079;28;20046;-77
2023/06/28 02:29:44;;;;;;;3.70;2.60;;;15.40;86.20;;;;;;4958866;28;20042;-77
2023/06/28 02:32:09;;;;;;;5.93;3.72;;;15.40;87.30;;;;;;4958821;28;20137;-78
2023/06/28 02:34:35;;;;;;;5.15;3.13;;;15.40;86.80;;;;;;4974954;28;20145;-78
2023/06/28 02:37:01;;;;;;;4.45;3.17;;;15.40;86.70;;;;;;4974963;28;20034;-77
2023/06/28 02:39:27;;;;;;;5.72;3.20;;;15.30;87.00;;;;;;4973794;28;20113;-77
2023/06/28 02:41:53;;;;;;;7.43;3.08;;;15.30;87.00;;;;;;4974860;28;20039;-77
2023/06/28 02:44:18;;;;;;;7.43;3.00;;;15.30;87.50;;;;;;4974751;28;20070;-78
2023/06/28 02:46:44;;;;;;;6.43;2.80;;;15.30;87.10;;;;;;4975010;28;20054;-77
2023/06/28 02:49:10;;;;;;;4.70;2.53;;;15.30;87.30;;;;;;4958868;28;20518;-77
2023/06/28 02:51:35;;;;;;;8.35;3.90;;;15.30;87.20;;;;;;4974764;28;20042;-77
2023/06/28 02:54:01;;;;;;;3.83;2.70;;;15.30;87.10;;;;;;4974491;28;20107;-78
2023/06/28 02:56:28;;;;;;;4.85;3.17;;;15.30;87.10;;;;;;4973621;28;20070;-77
2023/06/28 02:58:53;;;;;;;6.03;3.38;;;15.40;87.10;;;;;;4974566;28;20042;-77
2023/06/28 03:01:20;;;;;;;6.30;2.95;;;15.30;87.30;;;;;;4974748;28;20045;-77
2023/06/28 03:03:47;;;;;;;5.82;3.45;;;15.30;87.20;;;;;;4973906;28;20051;-77
2023/06/28 03:06:16;;;;;;;5.80;3.10;;;15.30;87.00;;;;;;4974430;28;20046;-77
2023/06/28 03:08:42;;;;;;;7.43;3.20;;;15.30;87.40;;;;;;4958152;28;20519;-77
2023/06/28 03:11:08;;;;;;;7.20;3.47;;;15.30;87.30;;;;;;4957552;28;20042;-78
2023/06/28 03:13:34;;;;;;;8.65;3.72;;;15.30;87.80;;;;;;4958330;28;20140;-77
2023/06/28 03:16:00;;;;;;;5.15;3.08;;;15.20;88.40;;;;;;4974294;28;20499;-77
2023/06/28 03:18:26;;;;;;;4.93;3.17;;;15.20;87.70;;;;;;4958169;28;20113;-77
2023/06/28 03:20:52;;;;;;;4.88;2.83;;;15.20;87.90;;;;;;4973711;28;20035;-77
2023/06/28 03:23:17;;;;;;;6.50;3.38;;;15.20;87.80;;;;;;4941636;28;20039;-77
2023/06/28 03:25:43;;;;;;;3.65;2.72;;;15.30;87.20;;;;;;4957473;28;20039;-77
2023/06/28 03:28:11;;;;;;;4.88;2.92;;;15.30;87.70;;;;;;4956368;28;20133;-77
2023/06/28 03:30:37;;;;;;;4.80;2.72;;;15.30;87.80;;;;;;4973987;28;20376;-77
2023/06/28 03:33:03;;;;;;;5.57;2.55;;;15.30;88.00;;;;;;4973548;28;20045;-76
2023/06/28 03:35:29;;;;;;;4.82;2.50;;;15.30;87.90;;;;;;4957260;28;20035;-76
2023/06/28 03:37:55;;;;;;;5.13;2.35;;;15.30;88.00;;;;;;4957644;28;20062;-77
2023/06/28 03:40:22;;;;;;;6.97;3.25;;;15.30;88.60;;;;;;4973160;28;20129;-76
2023/06/28 03:42:48;;;;;;;4.47;3.10;;;15.30;88.30;;;;;;4957803;28;20042;-77
2023/06/28 03:45:17;;;;;;;5.45;3.28;;;15.40;88.00;;;;;;4973100;28;20055;-77
2023/06/28 03:47:43;;;;;;;5.40;3.10;;;15.40;88.20;;;;;;4974005;28;20051;-77
2023/06/28 03:50:09;;;;;;;10.73;3.85;;;15.40;88.60;;;;;;4958029;28;20050;-77
2023/06/28 03:52:36;;;;;;;6.78;3.40;;;15.40;88.10;;;;;;4957904;28;20483;-76
2023/06/28 03:55:03;;;;;;;5.82;2.97;;;15.40;87.90;;;;;;4941870;28;20038;-77
2023/06/28 03:57:29;;;;;;;5.75;3.35;;;15.40;88.30;;;;;;4941786;28;20039;-77
2023/06/28 03:59:55;;;;;;;5.40;3.55;;;15.40;88.50;;;;;;4953371;28;20112;-76
2023/06/28 04:02:21;;;;;;;7.28;4.00;;;15.40;88.60;;;;;;4938735;29;20066;-76
2023/06/28 04:04:47;;;;;;;9.00;4.38;;;15.40;88.50;;;;;;4954134;29;20136;-77
2023/06/28 04:07:13;;;;;;;6.35;3.28;;;15.40;88.70;;;;;;4954237;29;20126;-76
2023/06/28 04:09:39;;;;;;;9.55;4.30;;;15.40;88.70;;;;;;4961028;28;20431;-76
2023/06/28 04:12:06;;;;;;;6.97;3.92;;;15.40;88.60;;;;;;4973606;28;20039;-76
2023/06/28 04:14:31;;;;;;;10.02;3.90;;;15.30;88.50;;;;;;4957693;28;20066;-77
2023/06/28 04:16:57;;;;;;;11.32;3.90;;;15.40;88.80;;;;;;4957105;28;20479;-77
2023/06/28 04:19:23;;;;;;;7.10;3.72;;;15.30;88.60;;;;;;4957470;28;20031;-77
2023/06/28 04:21:48;;;;;;;7.80;4.40;;;15.40;88.50;;;;;;4957559;28;20043;-77
2023/06/28 04:24:14;;;;;;;10.57;4.88;;;15.40;88.60;;;;;;4957380;28;20046;-81
2023/06/28 04:26:40;;;;;;;9.48;4.38;;;15.40;88.90;;;;;;4957345;28;20127;-81
2023/06/28 04:29:05;;;;;;;9.90;4.50;;;15.40;89.00;;;;;;4957865;28;20542;-78
2023/06/28 04:31:32;;;;;;;5.90;4.45;;;15.40;89.10;;;;;;4941922;28;20108;-79
2023/06/28 04:33:59;;;;;;;9.95;4.93;;;15.40;89.20;;;;;;4941677;28;20046;-78
2023/06/28 04:36:25;;;;;;;10.35;5.35;;;15.30;89.70;;;;;;4973684;28;20118;-78
2023/06/28 04:38:54;;;;;;;11.13;5.45;;;15.30;89.60;;;;;;4973837;28;20153;-78
2023/06/28 04:41:25;;;;;;;14.18;4.75;;;15.40;89.80;;;;;;4942140;28;20101;-78
2023/06/28 04:43:54;;;;;;;9.07;4.47;;;15.30;89.30;;;;;;4972716;28;20047;-78
2023/06/28 04:46:22;;;;;;;13.32;5.55;;;15.40;90.30;;;;;;4973918;28;20046;-79
2023/06/28 04:48:48;;;;;;;11.77;5.50;;;15.30;90.90;;;;;;4973878;28;20043;-79
2023/06/28 04:51:14;;;;;;;10.52;5.03;;;15.30;90.60;;;;;;4973766;28;20057;-78
2023/06/28 04:53:40;;;;;;;10.10;5.45;;;15.40;90.60;;;;;;4957084;28;20055;-78
2023/06/28 04:56:05;;;;;;;12.10;6.45;;;15.30;90.90;;;;;;4941517;28;20097;-78
2023/06/28 04:58:33;;;;;;;9.60;5.22;;;15.40;90.40;;;;;;4956556;28;20039;-78
2023/06/28 05:01:02;;;;;;;13.73;6.63;;;15.40;91.90;;;;;;4957673;28;20387;-79
2023/06/28 05:03:28;;;;;;;12.98;7.32;;;15.40;91.90;;;;;;4973459;28;20142;-78
2023/06/28 05:05:54;;;;;;;15.18;7.13;;;15.40;92.10;;;;;;4957323;28;20431;-78
2023/06/28 05:08:23;;;;;;;18.10;8.30;;;15.40;92.40;;;;;;4957183;28;20085;-78
2023/06/28 05:10:49;;;;;;;12.48;7.57;;;15.40;92.80;;;;;;4973914;28;20395;-79
2023/06/28 05:13:15;;;;;;;19.10;7.75;;;15.50;92.60;;;;;;4942433;28;20035;-79
2023/06/28 05:15:40;;;;;;;17.92;7.82;;;15.50;92.90;;;;;;4972982;28;20438;-79
2023/06/28 05:18:06;;;;;;;13.90;8.02;;;15.60;91.90;;;;;;4958169;28;20061;-80
2023/06/28 05:20:32;;;;;;;13.95;7.97;;;15.60;92.70;;;;;;4958905;28;20062;-80
2023/06/28 05:23:17;;;;;;;14.20;6.85;;;15.70;92.40;;;;;;4959968;28;20085;-80
2023/06/28 05:25:44;;;;;;;11.77;6.50;;;15.70;92.60;;;;;;4944053;28;20043;-80
2023/06/28 05:28:14;;;;;;;14.77;7.32;;;15.70;93.10;;;;;;4977408;28;20089;-81
2023/06/28 05:30:42;;;;;;;11.68;6.82;;;15.70;92.70;;;;;;4977562;28;20043;-80
2023/06/28 05:33:08;;;;;;;9.13;6.90;;;15.70;93.40;;;;;;4976879;28;20130;-80
2023/06/28 05:35:35;;;;;;;10.13;5.88;;;15.70;92.30;;;;;;4962529;28;20043;-80
2023/06/28 05:38:03;;;;;;;11.48;6.30;;;15.80;92.60;;;;;;4945554;28;20046;-79
2023/06/28 05:40:30;;;;;;;10.57;6.75;;;15.70;92.90;;;;;;4976973;28;20050;-79
2023/06/28 05:42:58;;;;;;;12.80;6.82;;;15.70;93.00;;;;;;4977017;28;20411;-78
2023/06/28 05:45:24;;;;;;;9.48;5.45;;;15.60;93.20;;;;;;4960510;28;20475;-78
2023/06/28 05:47:50;;;;;;;12.02;6.22;;;15.60;92.90;;;;;;4960510;28;20078;-79
2023/06/28 05:50:17;;;;;;;8.85;5.88;;;15.60;93.10;;;;;;4960554;28;20451;-79
2023/06/28 05:52:46;;;;;;;9.52;6.40;;;15.60;92.50;;;;;;4976615;28;20122;-79
2023/06/28 05:55:12;;;;;;;8.88;6.68;;;15.60;93.00;;;;;;4944226;28;20476;-79
2023/06/28 05:57:39;;;;;;;9.80;6.32;;;15.60;93.00;;;;;;4961230;28;20050;-80
2023/06/28 06:00:09;;;;;;;8.93;5.28;;;15.60;92.60;;;;;;4962689;28;20101;-81
2023/06/28 06:02:35;;;;;;;12.90;6.90;;;15.60;92.50;;;;;;4962510;28;20492;-81
2023/06/28 06:05:02;;;;;;;12.10;6.57;;;15.60;92.70;;;;;;4933229;28;20334;-80
2023/06/28 06:07:28;;;;;;;11.65;5.97;;;15.60;92.70;;;;;;4979331;28;20128;-77
2023/06/28 06:09:55;;;;;;;12.88;6.72;;;15.60;92.90;;;;;;4955899;28;20407;-77
2023/06/28 06:12:21;;;;;;;14.50;7.85;;;15.60;92.70;;;;;;4943911;28;20100;-77
2023/06/28 06:14:50;;;;;;;10.32;5.93;;;15.60;92.80;;;;;;4975498;28;20043;-78
2023/06/28 06:17:19;;;;;;;11.50;6.97;;;15.50;93.20;;;;;;4961956;28;20055;-77
2023/06/28 06:19:44;;;;;;;12.90;7.55;;;15.50;93.30;;;;;;4978010;28;20947;-77
2023/06/28 06:22:10;;;;;;;17.45;8.05;;;15.50;93.40;;;;;;4958964;28;20045;-78
2023/06/28 06:24:36;;;;;;;10.27;7.15;;;15.60;93.40;;;;;;4974957;28;20050;-78
2023/06/28 06:27:03;;;;;;;15.25;7.10;;;15.60;93.10;;;;;;4962964;28;20062;-77
2023/06/28 06:29:29;;;;;;;8.13;6.72;;;15.60;93.30;;;;;;4956835;28;20477;-77
2023/06/28 06:31:54;;;;;;;14.93;7.60;;;15.70;93.50;;;;;;4942340;28;20047;-77
2023/06/28 06:34:20;;;;;;;14.93;6.97;;;15.70;93.40;;;;;;4961931;28;20138;-77
2023/06/28 06:36:46;;;;;;;11.23;7.25;;;15.70;93.20;;;;;;4976102;28;20060;-77
2023/06/28 06:39:11;;;;;;;10.15;6.47;;;15.60;93.20;;;;;;4959625;28;20505;-76
2023/06/28 06:41:37;;;;;;;11.35;6.20;;;15.60;93.10;;;;;;4963880;28;20032;-76
2023/06/28 06:44:03;;;;;;;13.02;7.13;;;15.70;93.10;;;;;;4976081;28;20050;-76
2023/06/28 06:46:29;;;;;;;11.60;7.18;;;15.70;93.20;;;;;;4978004;28;20156;-76
2023/06/28 06:48:55;;;;;;;10.65;6.55;;;15.70;93.10;;;;;;4975843;28;20058;-76
2023/06/28 06:51:21;;;;;;;11.38;6.35;;;15.70;92.90;;;;;;4960527;28;20894;-76
2023/06/28 06:53:46;;;;;;;10.27;6.93;;;15.70;93.10;;;;;;4977855;28;20065;-77
2023/06/28 06:56:12;;;;;;;9.98;6.15;;;15.80;92.80;;;;;;4961451;28;20041;-80
2023/06/28 06:58:38;;;;;;;12.75;6.63;;;15.70;92.60;;;;;;4944884;28;20039;-80
2023/06/28 07:01:04;;;;;;;17.05;7.68;;;15.80;92.60;;;;;;4964449;28;20072;-80
2023/06/28 07:03:30;;;;;;;14.80;6.88;;;15.90;92.60;;;;;;4948160;28;20523;-79
2023/06/28 07:05:55;;;;;;;12.50;6.15;;;16.00;92.60;;;;;;4947083;28;20388;-80
2023/06/28 07:08:21;;;;;;;9.75;6.63;;;16.00;92.60;;;;;;4948108;28;20050;-79
2023/06/28 07:10:47;;;;;;;10.90;6.57;;;16.00;92.70;;;;;;4982145;28;20046;-80
2023/06/28 07:13:14;;;;;;;10.10;6.43;;;15.90;92.70;;;;;;4958257;28;20546;-80
2023/06/28 07:15:40;;;;;;;12.60;7.28;;;15.90;93.00;;;;;;4958959;28;20075;-80
2023/06/28 07:18:05;;;;;;;11.43;6.60;;;15.90;93.20;;;;;;4977372;28;20722;-80
2023/06/28 07:20:31;;;;;;;13.75;6.35;;;15.90;93.00;;;;;;4978506;28;20137;-81
2023/06/28 07:22:57;;;;;;;16.13;7.85;;;16.00;92.70;;;;;;4965107;28;20054;-80
2023/06/28 07:25:22;;;;;;;11.25;6.10;;;16.00;92.70;;;;;;4947327;28;20109;-80
2023/06/28 07:27:48;;;;;;;10.95;6.20;;;16.00;92.70;;;;;;4947885;28;20050;-80
2023/06/28 07:30:14;;;;;;;10.65;6.38;;;16.00;92.50;;;;;;4965505;28;20042;-81
2023/06/28 07:32:40;;;;;;;10.80;6.90;;;16.00;92.60;;;;;;4965630;28;20057;-81
2023/06/28 07:35:06;;;;;;;13.48;6.93;;;16.00;92.60;;;;;;4946107;28;20042;-80
2023/06/28 07:37:32;;;;;;;13.90;7.22;;;16.00;92.70;;;;;;4964129;28;20062;-80
2023/06/28 07:39:58;;;;;;;14.98;7.38;;;16.00;92.50;;;;;;4963122;28;20046;-79
2023/06/28 07:42:24;;;;;;;11.23;7.13;;;16.00;92.50;;;;;;4944608;28;20042;-79
2023/06/28 07:44:50;;;;;;;12.02;7.13;;;16.00;92.70;;;;;;4961248;28;20057;-80
2023/06/28 07:47:16;;;;;;;8.15;6.47;;;15.90;92.90;;;;;;4944995;28;20479;-80
2023/06/28 07:49:42;;;;;;;10.07;7.15;;;16.00;92.80;;;;;;4961865;28;20077;-80
2023/06/28 07:52:09;;;;;;;10.70;7.53;;;16.00;93.20;;;;;;4979463;28;20031;-79
2023/06/28 07:54:35;;;;;;;13.40;7.93;;;15.90;93.30;;;;;;4959935;28;20455;-81
2023/06/28 07:57:01;;;;;;;12.15;7.72;;;15.90;93.20;;;;;;4961046;28;20077;-79
2023/06/28 07:59:26;;;;;;;12.55;8.52;;;16.00;93.10;;;;;;4942904;28;20538;-81
2023/06/28 08:01:52;;;;;;;11.93;8.07;;;16.00;93.10;;;;;;4973230;28;20059;-79
2023/06/28 08:04:20;;;;;;;15.23;8.80;;;16.00;93.00;;;;;;4947459;28;20074;-79
2023/06/28 08:06:46;;;;;;;16.58;9.10;;;16.00;92.80;;;;;;4941759;28;20078;-79
2023/06/28 08:09:12;;;;;;;12.18;7.70;;;16.00;93.20;;;;;;4946091;28;20035;-79
2023/06/28 08:11:39;;;;;;;11.60;8.02;;;16.00;93.20;;;;;;4962144;28;20078;-79
2023/06/28 08:14:05;;;;;;;12.55;9.25;;;16.10;93.40;;;;;;4961862;28;20188;-80
2023/06/28 08:16:32;;;;;;;12.50;8.23;;;16.10;93.80;;;;;;4959365;28;20050;-79
2023/06/28 08:18:59;;;;;;;17.42;10.30;;;16.10;93.50;;;;;;4977078;28;20038;-79
2023/06/28 08:21:24;;;;;;;14.50;10.27;;;16.20;93.40;;;;;;4967115;28;20046;-81
2023/06/28 08:23:51;;;;;;;17.73;9.90;;;16.10;94.00;;;;;;4961003;28;20525;-80
2023/06/28 08:26:17;;;;;;;15.50;9.60;;;16.10;93.80;;;;;;4956811;28;20076;-80
2023/06/28 08:28:42;;;;;;;19.80;11.52;;;16.10;93.50;;;;;;4957747;28;20035;-80
2023/06/28 08:31:08;;;;;;;17.65;10.68;;;16.20;94.30;;;;;;4945952;28;20394;-79
2023/06/28 08:33:34;;;;;;;14.38;10.75;;;16.10;94.60;;;;;;4951470;28;20065;-79
2023/06/28 08:35:59;;;;;;;14.48;10.50;;;16.10;94.60;;;;;;4944892;28;20055;-80
2023/06/28 08:38:25;;;;;;;14.75;10.65;;;16.10;94.40;;;;;;4959320;28;20050;-80
2023/06/28 08:40:52;;;;;;;15.00;10.13;;;16.10;94.30;;;;;;4942947;28;20514;-79
2023/06/28 08:43:21;;;;;;;15.52;11.18;;;16.20;94.10;;;;;;4952400;28;20152;-79
2023/06/28 08:45:47;;;;;;;17.80;13.57;;;16.20;94.10;;;;;;4951479;28;20049;-80
2023/06/28 08:48:14;;;;;;;15.23;10.90;;;16.20;94.50;;;;;;4951393;28;20055;-79
2023/06/28 08:50:41;;;;;;;13.43;10.55;;;16.30;94.50;;;;;;4944113;28;20102;-79
2023/06/28 08:53:09;;;;;;;16.90;11.85;;;16.30;94.60;;;;;;4945840;28;20043;-80
2023/06/28 08:55:37;;;;;;;19.90;12.80;;;16.30;94.50;;;;;;4974999;28;20051;-79
2023/06/28 08:58:05;;;;;;;14.40;12.23;;;16.30;94.40;;;;;;4962811;28;20061;-79
2023/06/28 09:00:31;;;;;;;18.25;13.63;;;16.40;94.80;;;;;;4974782;28;20502;-79
2023/06/28 09:02:57;;;;;;;18.00;13.20;;;16.50;95.00;;;;;;4962103;28;20171;-78
2023/06/28 09:05:23;;;;;;;17.33;13.13;;;16.50;95.00;;;;;;4968678;28;20050;-79
2023/06/28 09:07:53;;;;;;;14.60;10.80;;;16.50;95.20;;;;;;4966290;28;20065;-79
2023/06/28 09:10:20;;;;;;;13.63;10.88;;;16.50;95.00;;;;;;4982382;28;20490;-79
2023/06/28 09:12:47;;;;;;;12.13;10.90;;;16.50;95.00;;;;;;4978322;28;20058;-79
2023/06/28 09:15:16;;;;;;;14.25;12.55;;;16.40;94.90;;;;;;4978041;28;20043;-79
2023/06/28 09:17:42;;;;;;;14.18;11.50;;;16.40;95.00;;;;;;4972986;28;20035;-79
2023/06/28 09:20:18;;;;;;;12.63;11.20;;;16.40;95.00;;;;;;4956055;28;20045;-79
2023/06/28 09:22:58;;;;;;;18.40;13.70;;;16.50;94.80;;;;;;4964020;28;20096;-80
2023/06/28 09:25:29;;;;;;;15.55;12.55;;;16.50;95.00;;;;;;4956450;28;20046;-76
2023/06/28 09:27:55;;;;;;;16.48;13.00;;;16.50;95.20;;;;;;4962479;28;20061;-77
2023/06/28 09:30:21;;;;;;;16.85;14.13;;;16.50;95.00;;;;;;4973103;28;20088;-76
2023/06/28 09:32:51;;;;;;;14.95;12.02;;;16.60;95.20;;;;;;4960897;28;20070;-77
2023/06/28 09:35:21;;;;;;;14.00;12.05;;;16.60;95.10;;;;;;4972639;28;20053;-77
2023/06/28 09:37:58;;;;;;;19.00;14.18;;;16.70;95.10;;;;;;4979481;28;20039;-77
2023/06/28 09:40:24;;;;;;;16.02;12.75;;;16.70;95.40;;;;;;4956696;28;20377;-77
2023/06/28 09:42:51;;;;;;;14.75;12.52;;;16.80;95.20;;;;;;4977848;28;20133;-76
2023/06/28 09:45:32;;;;;;;15.73;13.55;;;16.90;95.20;;;;;;4992140;28;20518;-77
2023/06/28 09:48:03;;;;;;;16.38;14.52;;;17.00;94.80;;;;;;4993509;28;20118;-77
2023/06/28 09:50:43;;;;;;;15.88;14.18;;;17.00;94.80;;;;;;4995755;28;20368;-77
2023/06/28 09:53:11;;;;;;;20.30;15.30;;;16.90;94.90;;;;;;5012690;28;20130;-76
2023/06/28 09:55:39;;;;;;;19.30;13.65;;;17.00;94.80;;;;;;5018236;28;20039;-78
2023/06/28 09:58:16;;;;;;;16.92;14.57;;;17.00;94.80;;;;;;5010810;28;20043;-77
2023/06/28 10:00:43;;;;;;;20.30;16.38;;;17.00;95.10;;;;;;4979509;28;20078;-77
2023/06/28 10:03:11;;;;;;;20.58;15.77;;;17.10;95.10;;;;;;5010755;28;20078;-80
2023/06/28 10:05:39;;;;;;;22.83;16.38;;;17.10;95.30;;;;;;4987200;28;20054;-80
2023/06/28 10:08:10;;;;;;;20.20;15.77;;;17.20;95.10;;;;;;4962856;28;20200;-78
2023/06/28 10:10:37;;;;;;;20.02;15.93;;;17.30;94.80;;;;;;4979473;28;20400;-80
2023/06/28 10:13:06;;;;;;;19.63;14.77;;;17.40;95.00;;;;;;4962682;28;20046;-79
2023/06/28 10:15:44;;;;;;;20.85;15.90;;;17.40;94.90;;;;;;4979799;28;20030;-79
2023/06/28 10:18:11;;;;;;;19.83;15.48;;;17.50;94.60;;;;;;4979355;28;20125;-83
2023/06/28 10:20:38;;;;;;;15.52;13.93;;;17.50;94.70;;;;;;4948196;28;20042;-77
2023/06/28 10:23:06;;;;;;;18.40;16.55;;;17.50;94.80;;;;;;4963246;28;20054;-78
2023/06/28 10:25:32;;;;;;;17.52;15.57;;;17.50;94.90;;;;;;4972988;28;20051;-78
2023/06/28 10:27:59;;;;;;;18.98;16.85;;;17.50;94.80;;;;;;4979821;28;20050;-78
2023/06/28 10:30:25;;;;;;;20.83;17.20;;;17.50;95.00;;;;;;4943849;28;20066;-77
2023/06/28 10:32:53;;;;;;;17.25;14.93;;;17.50;95.10;;;;;;4959224;28;20962;-77
2023/06/28 10:35:19;;;;;;;23.75;16.83;;;17.60;94.80;;;;;;4959459;28;20849;-77
2023/06/28 10:37:46;;;;;;;21.15;17.90;;;17.60;94.60;;;;;;4977872;28;20046;-77
2023/06/28 10:40:12;;;;;;;18.77;16.45;;;17.70;94.50;;;;;;4976254;28;20038;-78
2023/06/28 10:42:41;;;;;;;19.27;16.30;;;17.70;94.60;;;;;;4953433;28;20039;-78
2023/06/28 10:45:08;;;;;;;21.15;16.88;;;17.70;94.40;;;;;;4976965;28;20550;-78
2023/06/28 10:47:34;;;;;;;21.92;17.50;;;17.70;94.30;;;;;;4979621;28;20038;-78
2023/06/28 10:50:16;;;;;;;23.75;18.90;;;17.70;94.30;;;;;;4976966;28;20047;-78
2023/06/28 10:52:46;;;;;;;23.30;18.50;;;17.80;94.50;;;;;;4979764;28;20034;-77
2023/06/28 10:55:12;;;;;;;22.58;18.30;;;17.80;94.60;;;;;;4960648;28;20034;-77
2023/06/28 10:57:41;;;;;;;22.38;18.00;;;17.80;94.70;;;;;;4978459;28;20375;-77
2023/06/28 11:00:44;;;;;;;21.40;18.38;;;17.70;94.70;;;;;;4973594;28;20200;-77
2023/06/28 11:03:10;;;;;;;21.45;16.52;;;17.70;94.70;;;;;;4931786;28;20122;-77
2023/06/28 11:05:40;;;;;;;22.92;18.65;;;17.70;94.60;;;;;;4967111;28;20050;-77
2023/06/28 11:08:13;;;;;;;23.63;19.45;;;17.70;94.60;;;;;;4970220;28;20046;-77
2023/06/28 11:10:45;;;;;;;24.35;19.23;;;17.70;94.60;;;;;;4975050;28;20413;-76
2023/06/28 11:13:15;;;;;;;23.23;19.20;;;17.70;94.40;;;;;;4955200;28;20100;-77
2023/06/28 11:15:47;;;;;;;27.65;21.65;;;17.70;94.50;;;;;;4961267;28;20046;-77
2023/06/28 11:18:19;;;;;;;30.38;20.65;;;17.70;94.60;;;;;;4973559;28;20081;-77
2023/06/28 11:20:52;;;;;;;29.77;23.73;;;17.70;94.50;;;;;;4952735;28;20057;-77
2023/06/28 11:23:47;;;;;;;26.13;22.63;;;17.70;94.60;;;;;;4942646;28;20065;-77
2023/06/28 11:26:16;;;;;;;28.02;22.60;;;17.70;94.80;;;;;;4979370;28;20113;-77
2023/06/28 11:28:54;;;;;;;30.50;23.70;;;17.70;94.50;;;;;;4975434;28;20394;-77
2023/06/28 11:31:25;;;;;;;30.30;23.60;;;17.70;94.80;;;;;;4953613;28;20043;-78
2023/06/28 11:33:54;;;;;;;30.45;24.17;;;17.60;94.50;;;;;;4977230;28;20047;-77
2023/06/28 11:36:23;;;;;;;35.45;25.67;;;17.60;94.40;;;;;;4955122;29;20070;-78
2023/06/28 11:38:50;;;;;;;36.03;25.50;;;17.60;94.90;;;;;;4939446;29;20078;-78
2023/06/28 11:41:16;;;;;;;35.22;25.20;;;17.70;95.00;;;;;;4955067;29;20098;-78
2023/06/28 11:43:46;;;;;;;30.75;26.05;;;17.60;95.00;;;;;;4955223;28;20055;-77
2023/06/28 11:46:19;;;;;;;33.35;25.13;;;17.70;94.80;;;;;;4955131;29;20089;-77
2023/06/28 11:48:50;;;;;;;36.70;27.88;;;17.70;94.90;;;;;;4980474;28;20062;-77
2023/06/28 11:51:16;;;;;;;31.48;25.45;;;17.70;95.20;;;;;;4993481;28;20089;-77
2023/06/28 11:53:49;;;;;;;37.22;29.33;;;17.70;95.30;;;;;;4977816;28;20372;-77
2023/06/28 11:56:14;;;;;;;38.17;29.92;;;17.70;95.40;;;;;;4962616;28;20097;-78
2023/06/28 11:58:40;;;;;;;37.53;30.30;;;17.70;95.40;;;;;;4961462;28;20487;-78
2023/06/28 12:01:18;;;;;;;42.55;32.13;;;17.70;95.30;;;;;;4993393;28;20038;-78
2023/06/28 12:03:43;;;;;;;41.70;32.15;;;17.80;95.80;;;;;;4993207;28;20111;-78
2023/06/28 12:06:10;;;;;;;35.78;27.92;;;17.80;95.50;;;;;;4977232;28;20054;-78
2023/06/28 12:08:38;;;;;;;39.15;32.38;;;17.80;95.50;;;;;;4993227;28;20113;-78
2023/06/28 12:11:12;;;;;;;38.10;29.33;;;17.80;95.50;;;;;;4977344;28;20573;-77
2023/06/28 12:13:39;;;;;;;43.88;34.00;;;17.80;95.30;;;;;;4993223;28;20046;-79
2023/06/28 12:16:16;;;;;;;43.00;32.40;;;17.90;95.50;;;;;;4980674;28;20480;-79
2023/06/28 12:18:59;;;;;;;43.53;32.53;;;17.90;95.70;;;;;;4976566;28;20124;-78
2023/06/28 12:21:29;;;;;;;41.85;34.13;;;17.90;95.30;;;;;;4993236;28;20038;-77
2023/06/28 12:24:21;;;;;;;47.47;36.08;;;17.90;95.40;;;;;;4993676;28;20060;-77
2023/06/28 12:27:13;;;;;;;47.00;34.50;;;17.90;95.50;;;;;;4993065;28;20089;-77
2023/06/28 12:29:42;;;;;;;44.88;34.97;;;18.00;95.60;;;;;;4967540;28;20062;-78
2023/06/28 12:32:11;;;;;;;40.38;33.45;;;18.00;95.50;;;;;;4957652;28;20511;-77
2023/06/28 12:34:38;;;;;;;44.60;34.30;;;18.00;95.40;;;;;;4957436;28;20047;-77
2023/06/28 12:37:08;;;;;;;41.17;32.58;;;18.10;95.40;;;;;;4956647;28;20096;-77